DLH585 HECA-EDDF
Flight info
| Callsign | DLH585 |
|---|---|
| Flight time | N/A |
| Altitude | 34000 |
| Route | MENKU L617 NOZ L551 ANTAR DCT RIGRO DCT FSK UL608 DISOR DCT LONTA UL608 DOLEV DCT LURID/N0457F360 DCT ZAG DCT BEDOX DCT SIMBA DCT AKINI T161 DEBHI DEBHI1B |
| Aircraft | B738/M-SDE2E3FGHIRWXY/LB1 |
Departure
| Time | 2026-05-05 11:26 |
|---|---|
| Airport | Cairo International Airport (HECA) |
Arrival
| Time | N/A |
|---|---|
| Airport | Frankfurt Main Airport (EDDF) |
| Time | Latitude | Longitude | Altitude | Speed | Heading |
|---|---|---|---|---|---|
| 2026-05-05 11:10 | 30.11024 | 31.40505 | 357 ft | 0 kts | 226° |
| 2026-05-05 11:18 | 30.11018 | 31.40498 | 356 ft | 6 kts | 226° |
| 2026-05-05 11:18 | 30.10983 | 31.40451 | 356 ft | 4 kts | 231° |
| 2026-05-05 11:18 | 30.10965 | 31.40426 | 356 ft | 0 kts | 213° |
| 2026-05-05 11:19 | 30.10965 | 31.40427 | 356 ft | 0 kts | 213° |
| 2026-05-05 11:19 | 30.10966 | 31.40427 | 356 ft | 0 kts | 213° |
| 2026-05-05 11:19 | 30.10957 | 31.40426 | 357 ft | 3 kts | 174° |
| 2026-05-05 11:19 | 30.10912 | 31.40449 | 360 ft | 9 kts | 164° |
| 2026-05-05 11:20 | 30.10827 | 31.40406 | 362 ft | 18 kts | 225° |
| 2026-05-05 11:20 | 30.10721 | 31.40259 | 361 ft | 27 kts | 230° |
| 2026-05-05 11:20 | 30.10572 | 31.40056 | 361 ft | 37 kts | 230° |
| 2026-05-05 11:20 | 30.10383 | 31.39817 | 364 ft | 43 kts | 229° |
| 2026-05-05 11:21 | 30.10217 | 31.39601 | 366 ft | 26 kts | 216° |
| 2026-05-05 11:21 | 30.10106 | 31.39627 | 372 ft | 11 kts | 144° |
| 2026-05-05 11:21 | 30.10062 | 31.39667 | 376 ft | 4 kts | 139° |
| 2026-05-05 11:21 | 30.10050 | 31.39679 | 377 ft | 2 kts | 140° |
| 2026-05-05 11:22 | 30.10040 | 31.39689 | 378 ft | 9 kts | 130° |
| 2026-05-05 11:22 | 30.10037 | 31.39695 | 378 ft | 0 kts | 128° |
| 2026-05-05 11:23 | 30.10036 | 31.39695 | 378 ft | 3 kts | 128° |
| 2026-05-05 11:23 | 30.10031 | 31.39703 | 379 ft | 0 kts | 125° |
| 2026-05-05 11:24 | 30.10020 | 31.39725 | 380 ft | 13 kts | 113° |
| 2026-05-05 11:24 | 30.10006 | 31.39774 | 382 ft | 12 kts | 104° |
| 2026-05-05 11:24 | 30.10002 | 31.39841 | 383 ft | 0 kts | 76° |
| 2026-05-05 11:24 | 30.10019 | 31.39879 | 384 ft | 0 kts | 55° |
| 2026-05-05 11:25 | 30.10019 | 31.39880 | 384 ft | 1 kts | 55° |
| 2026-05-05 11:26 | 30.10195 | 31.40118 | 386 ft | 82 kts | 47° |
| 2026-05-05 11:26 | 30.10732 | 31.40821 | 387 ft | 154 kts | 49° |
| 2026-05-05 11:26 | 30.11561 | 31.41829 | 730 ft | 185 kts | 32° |
| 2026-05-05 11:26 | 30.12758 | 31.42226 | 1487 ft | 195 kts | 355° |
| 2026-05-05 11:27 | 30.14156 | 31.41886 | 1982 ft | 228 kts | 336° |
| 2026-05-05 11:27 | 30.15621 | 31.40891 | 2451 ft | 258 kts | 324° |
| 2026-05-05 11:27 | 30.17082 | 31.39719 | 3315 ft | 269 kts | 324° |
| 2026-05-05 11:27 | 30.18595 | 31.38512 | 4229 ft | 277 kts | 322° |
| 2026-05-05 11:28 | 30.19871 | 31.36921 | 5161 ft | 282 kts | 299° |
| 2026-05-05 11:28 | 30.20742 | 31.34978 | 6236 ft | 282 kts | 300° |
| 2026-05-05 11:28 | 30.21914 | 31.33196 | 7101 ft | 290 kts | 312° |
| 2026-05-05 11:28 | 30.23282 | 31.31547 | 8120 ft | 291 kts | 313° |
| 2026-05-05 11:29 | 30.24693 | 31.29857 | 9018 ft | 296 kts | 313° |
| 2026-05-05 11:29 | 30.26090 | 31.28204 | 9914 ft | 299 kts | 314° |
| 2026-05-05 11:29 | 30.27526 | 31.26522 | 10770 ft | 303 kts | 314° |
| 2026-05-05 11:29 | 30.28983 | 31.24818 | 11062 ft | 311 kts | 314° |
| 2026-05-05 11:30 | 30.30403 | 31.23162 | 11081 ft | 304 kts | 314° |
| 2026-05-05 11:30 | 30.31841 | 31.21484 | 11076 ft | 303 kts | 314° |
| 2026-05-05 11:30 | 30.33307 | 31.19795 | 11074 ft | 303 kts | 314° |
| 2026-05-05 11:30 | 30.34745 | 31.18121 | 11075 ft | 303 kts | 314° |
| 2026-05-05 11:31 | 30.36224 | 31.16387 | 11160 ft | 301 kts | 314° |
| 2026-05-05 11:31 | 30.37684 | 31.14677 | 11454 ft | 316 kts | 314° |
| 2026-05-05 11:31 | 30.38863 | 31.13293 | 11657 ft | 332 kts | 314° |
| 2026-05-05 11:31 | 30.40503 | 31.11375 | 11925 ft | 351 kts | 314° |
| 2026-05-05 11:32 | 30.42028 | 31.09595 | 12161 ft | 354 kts | 314° |
| 2026-05-05 11:32 | 30.43619 | 31.07736 | 12412 ft | 353 kts | 314° |
| 2026-05-05 11:32 | 30.47695 | 31.02966 | 13060 ft | 353 kts | 314° |
| 2026-05-05 11:33 | 30.49401 | 31.00969 | 13332 ft | 353 kts | 314° |
| 2026-05-05 11:33 | 30.51136 | 30.98936 | 13609 ft | 353 kts | 314° |
| 2026-05-05 11:33 | 30.52856 | 30.96920 | 13883 ft | 353 kts | 314° |
| 2026-05-05 11:33 | 30.54553 | 30.94928 | 14154 ft | 354 kts | 314° |
| 2026-05-05 11:34 | 30.56293 | 30.92886 | 14431 ft | 354 kts | 314° |
| 2026-05-05 11:34 | 30.58017 | 30.90861 | 14705 ft | 355 kts | 314° |
| 2026-05-05 11:34 | 30.59730 | 30.88848 | 14977 ft | 356 kts | 314° |
| 2026-05-05 11:34 | 30.61452 | 30.86824 | 15249 ft | 357 kts | 314° |
| 2026-05-05 11:35 | 30.63185 | 30.84786 | 15523 ft | 358 kts | 314° |
| 2026-05-05 11:35 | 30.64947 | 30.82712 | 15800 ft | 359 kts | 314° |
| 2026-05-05 11:35 | 30.66668 | 30.80686 | 16071 ft | 360 kts | 314° |
| 2026-05-05 11:35 | 30.68428 | 30.78613 | 16347 ft | 360 kts | 314° |
| 2026-05-05 11:36 | 30.70177 | 30.76551 | 16621 ft | 361 kts | 314° |
| 2026-05-05 11:36 | 30.71935 | 30.74479 | 16895 ft | 362 kts | 314° |
| 2026-05-05 11:36 | 30.73679 | 30.72421 | 17167 ft | 363 kts | 314° |
| 2026-05-05 11:36 | 30.75456 | 30.70322 | 17443 ft | 364 kts | 313° |
| 2026-05-05 11:37 | 30.77223 | 30.68235 | 17717 ft | 365 kts | 313° |
| 2026-05-05 11:37 | 30.78982 | 30.66156 | 17989 ft | 366 kts | 313° |
| 2026-05-05 11:37 | 30.80780 | 30.64030 | 18266 ft | 367 kts | 313° |
| 2026-05-05 11:37 | 30.82552 | 30.61934 | 18539 ft | 368 kts | 313° |
| 2026-05-05 11:38 | 30.84335 | 30.59824 | 18813 ft | 369 kts | 313° |
| 2026-05-05 11:38 | 30.86121 | 30.57708 | 19087 ft | 370 kts | 313° |
| 2026-05-05 11:38 | 30.87942 | 30.55552 | 19364 ft | 371 kts | 313° |
| 2026-05-05 11:38 | 30.89729 | 30.53440 | 19636 ft | 371 kts | 313° |
| 2026-05-05 11:39 | 30.91521 | 30.51318 | 19909 ft | 372 kts | 312° |
| 2026-05-05 11:39 | 30.93196 | 30.49333 | 20163 ft | 372 kts | 312° |
| 2026-05-05 11:39 | 30.95110 | 30.47061 | 20455 ft | 372 kts | 312° |
| 2026-05-05 11:39 | 30.96780 | 30.45078 | 20709 ft | 372 kts | 312° |
| 2026-05-05 11:40 | 30.98286 | 30.43289 | 20938 ft | 372 kts | 311° |
| 2026-05-05 11:40 | 31.01928 | 30.38956 | 21492 ft | 372 kts | 311° |
| 2026-05-05 11:40 | 31.03732 | 30.36807 | 21766 ft | 373 kts | 311° |
| 2026-05-05 11:41 | 31.05500 | 30.34701 | 22036 ft | 374 kts | 310° |
| 2026-05-05 11:41 | 31.07261 | 30.32589 | 22302 ft | 374 kts | 308° |
| 2026-05-05 11:41 | 31.08755 | 30.30117 | 22570 ft | 370 kts | 295° |
| 2026-05-05 11:41 | 31.09797 | 30.27434 | 22856 ft | 371 kts | 290° |
| 2026-05-05 11:42 | 31.10638 | 30.24617 | 23127 ft | 371 kts | 287° |
| 2026-05-05 11:42 | 31.11412 | 30.21785 | 23397 ft | 372 kts | 287° |
| 2026-05-05 11:42 | 31.12207 | 30.18948 | 23668 ft | 372 kts | 287° |
| 2026-05-05 11:42 | 31.13013 | 30.16069 | 23944 ft | 373 kts | 287° |
| 2026-05-05 11:43 | 31.13807 | 30.13197 | 24219 ft | 374 kts | 287° |
| 2026-05-05 11:43 | 31.14594 | 30.10329 | 24492 ft | 376 kts | 286° |
| 2026-05-05 11:43 | 31.15279 | 30.07825 | 24729 ft | 376 kts | 286° |
| 2026-05-05 11:43 | 31.16141 | 30.04673 | 25027 ft | 377 kts | 286° |
| 2026-05-05 11:44 | 31.16929 | 30.01778 | 25300 ft | 378 kts | 286° |
| 2026-05-05 11:44 | 31.17812 | 29.98885 | 25571 ft | 381 kts | 291° |
| 2026-05-05 11:44 | 31.19154 | 29.96225 | 25842 ft | 387 kts | 303° |
| 2026-05-05 11:44 | 31.21028 | 29.93968 | 26116 ft | 397 kts | 315° |
| 2026-05-05 11:45 | 31.23376 | 29.92197 | 26397 ft | 407 kts | 324° |
| 2026-05-05 11:45 | 31.25847 | 29.90704 | 26671 ft | 408 kts | 324° |
| 2026-05-05 11:45 | 31.28333 | 29.89166 | 26943 ft | 407 kts | 323° |
| 2026-05-05 11:45 | 31.30769 | 29.87618 | 27212 ft | 406 kts | 323° |
| 2026-05-05 11:46 | 31.33227 | 29.86065 | 27484 ft | 405 kts | 323° |
| 2026-05-05 11:46 | 31.35651 | 29.84544 | 27752 ft | 404 kts | 323° |
| 2026-05-05 11:46 | 31.38098 | 29.83008 | 28024 ft | 404 kts | 323° |
| 2026-05-05 11:46 | 31.40564 | 29.81460 | 28299 ft | 404 kts | 322° |
| 2026-05-05 11:47 | 31.42989 | 29.79936 | 28570 ft | 403 kts | 322° |
| 2026-05-05 11:47 | 31.45448 | 29.78392 | 28844 ft | 403 kts | 322° |
| 2026-05-05 11:47 | 31.47862 | 29.76876 | 29114 ft | 402 kts | 322° |
| 2026-05-05 11:47 | 31.50306 | 29.75340 | 29389 ft | 402 kts | 322° |
| 2026-05-05 11:48 | 31.55152 | 29.72293 | 29932 ft | 401 kts | 321° |
| 2026-05-05 11:48 | 31.57585 | 29.70761 | 30206 ft | 401 kts | 321° |
| 2026-05-05 11:48 | 31.60001 | 29.69240 | 30478 ft | 401 kts | 321° |
| 2026-05-05 11:49 | 31.62459 | 29.67691 | 30754 ft | 401 kts | 321° |
| 2026-05-05 11:49 | 31.64844 | 29.66188 | 31022 ft | 400 kts | 321° |
| 2026-05-05 11:49 | 31.67307 | 29.64635 | 31300 ft | 400 kts | 321° |
| 2026-05-05 11:49 | 31.69710 | 29.63119 | 31570 ft | 399 kts | 321° |
| 2026-05-05 11:50 | 31.72150 | 29.61578 | 31846 ft | 400 kts | 320° |
| 2026-05-05 11:50 | 31.74530 | 29.60074 | 32114 ft | 399 kts | 320° |
| 2026-05-05 11:50 | 31.76964 | 29.58536 | 32388 ft | 398 kts | 320° |
| 2026-05-05 11:50 | 31.79338 | 29.57034 | 32657 ft | 399 kts | 320° |
| 2026-05-05 11:51 | 31.81790 | 29.55482 | 32934 ft | 399 kts | 320° |
| 2026-05-05 11:51 | 31.83446 | 29.54433 | 33121 ft | 398 kts | 320° |
| 2026-05-05 11:51 | 31.85529 | 29.53113 | 33357 ft | 398 kts | 319° |
| 2026-05-05 11:51 | 31.87680 | 29.51751 | 33695 ft | 395 kts | 319° |
| 2026-05-05 11:52 | 31.90123 | 29.50210 | 34239 ft | 389 kts | 319° |
| 2026-05-05 11:52 | 31.94776 | 29.47264 | 35284 ft | 375 kts | 318° |
| 2026-05-05 11:52 | 31.97046 | 29.45824 | 35810 ft | 367 kts | 318° |
| 2026-05-05 11:53 | 32.01737 | 29.42820 | 36081 ft | 374 kts | 318° |
| 2026-05-05 11:53 | 32.06292 | 29.39910 | 36075 ft | 387 kts | 319° |
| 2026-05-05 11:54 | 32.10963 | 29.36933 | 36073 ft | 395 kts | 319° |
| 2026-05-05 11:54 | 32.15646 | 29.33956 | 36072 ft | 392 kts | 318° |
| 2026-05-05 11:55 | 32.20303 | 29.30984 | 36075 ft | 390 kts | 318° |